aviador You're here:

KNSE Decoded Metar

MILTON in FL, USA
Report Time2017-06-24 16:56:00
UTC Time2017-06-24 17:17:51
Flight Rules vfr VFR
Wind300° at 10 kt
W.Decomp.*RWY 32: 9.5 kt HW 3.1 kt LCW
RWY 23: 3.1 kt HW 9.5 kt RCW
W.Rank300° ranks 26
Current wind is above 300° avg. (6.5)
Visibility9999 m
Phenomena:N/A
Clouds:Few 034 Hf
Scattered 044 Hf
Scattered 055 Hf
Expected CloudBase > 2,000 ft AGL from Temp-Dew spread
CeilingNone
Temp28°C (ISA +13)
Dew Point23°C (74% RH)
Heat Index31.2°C
QNH1018 hPa
Density Alt1,942 ft
Elevation200 ft
Report Wrong Elevation
Raw Report
METAR KNSE 241656Z AUTO 30010KT 10SM FEW034 SCT044 SCT055 28/23 A3005
RMK AO2 WSHFT 1617 SLP160 T02780233 $=

Extra information for KNSE:More info

Metar Taf Metar & Taf Last 4 Metars F.Rules Stats Wind Profile Meteogram Temp Stats Airport Information Weather charts Add Link Nearby VenuesMetar ALERT Operation Metar Decoded Social comments

AIRNAV info for KNSE